sensor_id;sensor_type;location;lat;lon;timestamp;pressure;altitude;pressure_sealevel;temperature;humidity
11038;BME280;5572;49.540;11.932;2022-12-07T00:01:40;96406.44;;;1.95;100.00
11038;BME280;5572;49.540;11.932;2022-12-07T00:04:10;96412.00;;;1.94;100.00
11038;BME280;5572;49.540;11.932;2022-12-07T00:06:39;96421.28;;;1.91;100.00
11038;BME280;5572;49.540;11.932;2022-12-07T00:09:10;96427.19;;;1.93;100.00
11038;BME280;5572;49.540;11.932;2022-12-07T00:11:37;96440.03;;;1.96;100.00
11038;BME280;5572;49.540;11.932;2022-12-07T00:14:09;96447.69;;;1.93;100.00
11038;BME280;5572;49.540;11.932;2022-12-07T00:16:36;96456.25;;;1.95;100.00
11038;BME280;5572;49.540;11.932;2022-12-07T00:19:03;96460.63;;;2.01;100.00
11038;BME280;5572;49.540;11.932;2022-12-07T00:21:32;96465.31;;;1.94;100.00
11038;BME280;5572;49.540;11.932;2022-12-07T00:23:59;96476.22;;;1.92;100.00
11038;BME280;5572;49.540;11.932;2022-12-07T00:26:46;96489.03;;;1.95;100.00
11038;BME280;5572;49.540;11.932;2022-12-07T00:29:17;96500.84;;;1.99;100.00
11038;BME280;5572;49.540;11.932;2022-12-07T00:31:55;96501.66;;;2.00;100.00
11038;BME280;5572;49.540;11.932;2022-12-07T00:34:22;96523.34;;;2.03;100.00
11038;BME280;5572;49.540;11.932;2022-12-07T00:36:49;96523.47;;;1.97;100.00
11038;BME280;5572;49.540;11.932;2022-12-07T00:39:16;96529.38;;;1.99;100.00
11038;BME280;5572;49.540;11.932;2022-12-07T00:41:43;96538.16;;;1.99;100.00
11038;BME280;5572;49.540;11.932;2022-12-07T00:44:10;96549.63;;;2.00;100.00
11038;BME280;5572;49.540;11.932;2022-12-07T00:46:45;96553.69;;;2.02;100.00
11038;BME280;5572;49.540;11.932;2022-12-07T00:49:12;96567.81;;;2.03;100.00
11038;BME280;5572;49.540;11.932;2022-12-07T00:51:39;96579.44;;;1.97;100.00
11038;BME280;5572;49.540;11.932;2022-12-07T00:54:06;96596.56;;;2.01;100.00
11038;BME280;5572;49.540;11.932;2022-12-07T00:56:32;96606.75;;;2.04;100.00
11038;BME280;5572;49.540;11.932;2022-12-07T00:59:01;96610.25;;;2.04;100.00
11038;BME280;5572;49.540;11.932;2022-12-07T01:01:35;96621.47;;;2.06;100.00
11038;BME280;5572;49.540;11.932;2022-12-07T01:04:06;96633.66;;;2.02;100.00
11038;BME280;5572;49.540;11.932;2022-12-07T01:06:33;96629.13;;;2.03;100.00
11038;BME280;5572;49.540;11.932;2022-12-07T01:09:01;96645.94;;;2.03;100.00
11038;BME280;5572;49.540;11.932;2022-12-07T01:11:30;96664.09;;;2.06;100.00
11038;BME280;5572;49.540;11.932;2022-12-07T01:13:58;96674.56;;;2.08;100.00
11038;BME280;5572;49.540;11.932;2022-12-07T01:16:32;96682.53;;;2.08;100.00
11038;BME280;5572;49.540;11.932;2022-12-07T01:19:00;96693.56;;;2.11;100.00
11038;BME280;5572;49.540;11.932;2022-12-07T01:21:29;96684.97;;;2.09;100.00
11038;BME280;5572;49.540;11.932;2022-12-07T01:24:00;96701.53;;;2.11;100.00
11038;BME280;5572;49.540;11.932;2022-12-07T01:26:27;96700.16;;;2.09;100.00
11038;BME280;5572;49.540;11.932;2022-12-07T01:28:54;96707.34;;;2.08;100.00
11038;BME280;5572;49.540;11.932;2022-12-07T01:31:27;96717.75;;;2.10;100.00
11038;BME280;5572;49.540;11.932;2022-12-07T01:33:56;96733.53;;;2.11;100.00
11038;BME280;5572;49.540;11.932;2022-12-07T01:36:25;96752.19;;;2.11;100.00
11038;BME280;5572;49.540;11.932;2022-12-07T01:38:55;96754.63;;;2.13;100.00
11038;BME280;5572;49.540;11.932;2022-12-07T01:41:23;96747.06;;;2.10;100.00
11038;BME280;5572;49.540;11.932;2022-12-07T01:44:15;96749.28;;;2.13;100.00
11038;BME280;5572;49.540;11.932;2022-12-07T01:46:44;96754.63;;;2.13;100.00
11038;BME280;5572;49.540;11.932;2022-12-07T01:49:16;96766.09;;;2.13;100.00
11038;BME280;5572;49.540;11.932;2022-12-07T01:51:44;96776.41;;;2.10;100.00
11038;BME280;5572;49.540;11.932;2022-12-07T01:54:14;96773.19;;;2.08;100.00
11038;BME280;5572;49.540;11.932;2022-12-07T01:56:45;96775.00;;;2.07;100.00
11038;BME280;5572;49.540;11.932;2022-12-07T01:59:14;96781.16;;;2.08;100.00
11038;BME280;5572;49.540;11.932;2022-12-07T02:01:41;96785.09;;;2.05;100.00
11038;BME280;5572;49.540;11.932;2022-12-07T02:04:08;96793.22;;;1.99;100.00
11038;BME280;5572;49.540;11.932;2022-12-07T02:06:35;96799.59;;;1.98;100.00
11038;BME280;5572;49.540;11.932;2022-12-07T02:09:03;96798.66;;;1.92;100.00
11038;BME280;5572;49.540;11.932;2022-12-07T02:11:31;96809.41;;;1.97;100.00
11038;BME280;5572;49.540;11.932;2022-12-07T02:13:57;96807.44;;;1.93;100.00
11038;BME280;5572;49.540;11.932;2022-12-07T02:16:30;96833.75;;;2.01;100.00
11038;BME280;5572;49.540;11.932;2022-12-07T02:19:14;96837.59;;;2.05;100.00
11038;BME280;5572;49.540;11.932;2022-12-07T02:21:51;96842.47;;;2.08;100.00
11038;BME280;5572;49.540;11.932;2022-12-07T02:24:42;96848.16;;;2.11;100.00
11038;BME280;5572;49.540;11.932;2022-12-07T02:27:36;96851.97;;;2.15;100.00
11038;BME280;5572;49.540;11.932;2022-12-07T02:30:08;96859.16;;;2.15;100.00
11038;BME280;5572;49.540;11.932;2022-12-07T02:32:42;96863.31;;;2.11;100.00
11038;BME280;5572;49.540;11.932;2022-12-07T02:35:15;96860.78;;;2.04;100.00
11038;BME280;5572;49.540;11.932;2022-12-07T02:37:50;96872.84;;;2.07;100.00
11038;BME280;5572;49.540;11.932;2022-12-07T02:40:21;96874.31;;;2.03;100.00
11038;BME280;5572;49.540;11.932;2022-12-07T02:42:51;96871.44;;;2.04;100.00
11038;BME280;5572;49.540;11.932;2022-12-07T02:45:25;96878.63;;;2.04;100.00
11038;BME280;5572;49.540;11.932;2022-12-07T02:47:56;96883.16;;;2.03;100.00
11038;BME280;5572;49.540;11.932;2022-12-07T02:50:26;96865.75;;;2.01;100.00
11038;BME280;5572;49.540;11.932;2022-12-07T02:52:53;96868.19;;;2.02;100.00
11038;BME280;5572;49.540;11.932;2022-12-07T02:55:23;96868.78;;;2.04;100.00
11038;BME280;5572;49.540;11.932;2022-12-07T02:58:06;96866.78;;;2.00;100.00
11038;BME280;5572;49.540;11.932;2022-12-07T03:00:44;96861.44;;;2.00;100.00
11038;BME280;5572;49.540;11.932;2022-12-07T03:03:15;96868.66;;;1.99;100.00
11038;BME280;5572;49.540;11.932;2022-12-07T03:06:13;96864.09;;;2.00;100.00
11038;BME280;5572;49.540;11.932;2022-12-07T03:08:49;96880.09;;;2.00;100.00
11038;BME280;5572;49.540;11.932;2022-12-07T03:11:25;96874.78;;;2.00;100.00
11038;BME280;5572;49.540;11.932;2022-12-07T03:13:59;96874.41;;;1.96;100.00
11038;BME280;5572;49.540;11.932;2022-12-07T03:16:31;96885.91;;;1.97;100.00
11038;BME280;5572;49.540;11.932;2022-12-07T03:19:02;96880.34;;;1.98;100.00
11038;BME280;5572;49.540;11.932;2022-12-07T03:21:32;96873.38;;;1.97;100.00
11038;BME280;5572;49.540;11.932;2022-12-07T03:24:04;96871.75;;;1.96;100.00
11038;BME280;5572;49.540;11.932;2022-12-07T03:26:36;96864.25;;;1.93;100.00
11038;BME280;5572;49.540;11.932;2022-12-07T03:29:07;96851.38;;;1.90;100.00
11038;BME280;5572;49.540;11.932;2022-12-07T03:31:39;96835.47;;;1.84;100.00
11038;BME280;5572;49.540;11.932;2022-12-07T03:34:11;96834.28;;;1.80;100.00
11038;BME280;5572;49.540;11.932;2022-12-07T03:36:43;96817.94;;;1.76;100.00
11038;BME280;5572;49.540;11.932;2022-12-07T03:39:17;96797.81;;;1.69;100.00
11038;BME280;5572;49.540;11.932;2022-12-07T03:41:47;96800.66;;;1.67;100.00
11038;BME280;5572;49.540;11.932;2022-12-07T03:44:15;96804.84;;;1.64;100.00
11038;BME280;5572;49.540;11.932;2022-12-07T03:46:44;96802.97;;;1.64;100.00
11038;BME280;5572;49.540;11.932;2022-12-07T03:49:18;96791.28;;;1.65;100.00
11038;BME280;5572;49.540;11.932;2022-12-07T03:51:53;96774.81;;;1.57;100.00
11038;BME280;5572;49.540;11.932;2022-12-07T03:54:26;96774.03;;;1.56;100.00
11038;BME280;5572;49.540;11.932;2022-12-07T03:56:55;96753.84;;;1.49;100.00
11038;BME280;5572;49.540;11.932;2022-12-07T03:59:22;96749.78;;;1.46;100.00
11038;BME280;5572;49.540;11.932;2022-12-07T04:01:53;96750.84;;;1.45;100.00
11038;BME280;5572;49.540;11.932;2022-12-07T04:04:20;96745.38;;;1.40;100.00
11038;BME280;5572;49.540;11.932;2022-12-07T04:06:47;96741.66;;;1.41;100.00
11038;BME280;5572;49.540;11.932;2022-12-07T04:09:14;96737.38;;;1.40;100.00
11038;BME280;5572;49.540;11.932;2022-12-07T04:11:40;96732.19;;;1.34;100.00
11038;BME280;5572;49.540;11.932;2022-12-07T04:14:07;96727.28;;;1.31;100.00
11038;BME280;5572;49.540;11.932;2022-12-07T04:16:45;96709.19;;;1.21;100.00
11038;BME280;5572;49.540;11.932;2022-12-07T04:19:14;96717.06;;;1.16;100.00
11038;BME280;5572;49.540;11.932;2022-12-07T04:21:41;96725.50;;;1.13;100.00
11038;BME280;5572;49.540;11.932;2022-12-07T04:24:08;96731.84;;;1.12;100.00
11038;BME280;5572;49.540;11.932;2022-12-07T04:26:35;96741.13;;;1.10;100.00
11038;BME280;5572;49.540;11.932;2022-12-07T04:29:01;96754.28;;;1.05;100.00
11038;BME280;5572;49.540;11.932;2022-12-07T04:31:28;96764.13;;;1.04;100.00
11038;BME280;5572;49.540;11.932;2022-12-07T04:33:54;96761.69;;;1.03;100.00
11038;BME280;5572;49.540;11.932;2022-12-07T04:36:22;96776.03;;;1.02;100.00
11038;BME280;5572;49.540;11.932;2022-12-07T04:38:49;96775.88;;;0.97;100.00
11038;BME280;5572;49.540;11.932;2022-12-07T04:41:15;96774.34;;;0.89;100.00
11038;BME280;5572;49.540;11.932;2022-12-07T04:43:42;96768.53;;;0.81;100.00
11038;BME280;5572;49.540;11.932;2022-12-07T04:46:08;96774.34;;;0.72;100.00
11038;BME280;5572;49.540;11.932;2022-12-07T04:48:35;96781.53;;;0.71;100.00
11038;BME280;5572;49.540;11.932;2022-12-07T04:51:02;96796.59;;;0.77;100.00
11038;BME280;5572;49.540;11.932;2022-12-07T04:53:31;96801.19;;;0.70;100.00
11038;BME280;5572;49.540;11.932;2022-12-07T04:55:57;96831.09;;;0.66;100.00
11038;BME280;5572;49.540;11.932;2022-12-07T04:58:26;96827.78;;;0.70;100.00
11038;BME280;5572;49.540;11.932;2022-12-07T05:00:54;96843.31;;;0.73;100.00
11038;BME280;5572;49.540;11.932;2022-12-07T05:03:20;96867.00;;;0.75;100.00
11038;BME280;5572;49.540;11.932;2022-12-07T05:05:47;96873.22;;;0.69;100.00
11038;BME280;5572;49.540;11.932;2022-12-07T05:08:13;96888.50;;;0.73;100.00
11038;BME280;5572;49.540;11.932;2022-12-07T05:10:42;96902.19;;;0.77;100.00
11038;BME280;5572;49.540;11.932;2022-12-07T05:13:08;96904.25;;;0.75;100.00
11038;BME280;5572;49.540;11.932;2022-12-07T05:15:35;96922.81;;;0.81;100.00
11038;BME280;5572;49.540;11.932;2022-12-07T05:18:02;96933.22;;;0.82;100.00
11038;BME280;5572;49.540;11.932;2022-12-07T05:20:29;96935.00;;;0.88;100.00
11038;BME280;5572;49.540;11.932;2022-12-07T05:22:56;96945.56;;;0.95;100.00
11038;BME280;5572;49.540;11.932;2022-12-07T05:25:23;96955.78;;;0.98;100.00
11038;BME280;5572;49.540;11.932;2022-12-07T05:27:52;96974.34;;;1.04;100.00
11038;BME280;5572;49.540;11.932;2022-12-07T05:30:18;96972.34;;;1.00;100.00
11038;BME280;5572;49.540;11.932;2022-12-07T05:32:45;96978.03;;;1.03;100.00
11038;BME280;5572;49.540;11.932;2022-12-07T05:35:12;96982.31;;;1.04;100.00
11038;BME280;5572;49.540;11.932;2022-12-07T05:37:38;96949.72;;;1.09;100.00
11038;BME280;5572;49.540;11.932;2022-12-07T05:40:07;96956.03;;;1.14;100.00
11038;BME280;5572;49.540;11.932;2022-12-07T05:42:34;96944.56;;;1.14;100.00
11038;BME280;5572;49.540;11.932;2022-12-07T05:45:03;96944.72;;;1.19;100.00
11038;BME280;5572;49.540;11.932;2022-12-07T05:47:30;96946.34;;;1.20;100.00
11038;BME280;5572;49.540;11.932;2022-12-07T05:49:57;96954.69;;;1.23;100.00
11038;BME280;5572;49.540;11.932;2022-12-07T05:52:23;96934.44;;;1.22;100.00
11038;BME280;5572;49.540;11.932;2022-12-07T05:54:51;96951.34;;;1.28;100.00
11038;BME280;5572;49.540;11.932;2022-12-07T05:57:17;96948.25;;;1.31;100.00
11038;BME280;5572;49.540;11.932;2022-12-07T05:59:44;96946.41;;;1.31;100.00
11038;BME280;5572;49.540;11.932;2022-12-07T06:02:13;96943.91;;;1.36;100.00
11038;BME280;5572;49.540;11.932;2022-12-07T06:04:41;96926.28;;;1.35;100.00
11038;BME280;5572;49.540;11.932;2022-12-07T06:07:08;96923.19;;;1.38;100.00
11038;BME280;5572;49.540;11.932;2022-12-07T06:09:36;96909.06;;;1.38;100.00
11038;BME280;5572;49.540;11.932;2022-12-07T06:12:08;96900.88;;;1.39;100.00
11038;BME280;5572;49.540;11.932;2022-12-07T06:14:53;96867.47;;;1.37;100.00
11038;BME280;5572;49.540;11.932;2022-12-07T06:17:21;96880.28;;;1.46;100.00
11038;BME280;5572;49.540;11.932;2022-12-07T06:19:48;96850.03;;;1.41;100.00
11038;BME280;5572;49.540;11.932;2022-12-07T06:22:15;96846.94;;;1.44;100.00
11038;BME280;5572;49.540;11.932;2022-12-07T06:24:41;96828.84;;;1.46;100.00
11038;BME280;5572;49.540;11.932;2022-12-07T06:27:08;96823.53;;;1.46;100.00
11038;BME280;5572;49.540;11.932;2022-12-07T06:29:35;96814.75;;;1.45;100.00
11038;BME280;5572;49.540;11.932;2022-12-07T06:32:03;96797.72;;;1.46;100.00
11038;BME280;5572;49.540;11.932;2022-12-07T06:34:31;96799.94;;;1.49;100.00
11038;BME280;5572;49.540;11.932;2022-12-07T06:36:58;96778.66;;;1.49;100.00
11038;BME280;5572;49.540;11.932;2022-12-07T06:39:27;96776.78;;;1.50;100.00
11038;BME280;5572;49.540;11.932;2022-12-07T06:41:54;96764.66;;;1.54;100.00
11038;BME280;5572;49.540;11.932;2022-12-07T06:44:21;96751.09;;;1.55;100.00
11038;BME280;5572;49.540;11.932;2022-12-07T06:46:48;96746.22;;;1.52;100.00
11038;BME280;5572;49.540;11.932;2022-12-07T06:49:15;96744.59;;;1.51;100.00
11038;BME280;5572;49.540;11.932;2022-12-07T06:51:43;96741.81;;;1.58;100.00
11038;BME280;5572;49.540;11.932;2022-12-07T06:54:14;96730.03;;;1.65;100.00
11038;BME280;5572;49.540;11.932;2022-12-07T06:56:41;96722.63;;;1.67;100.00
11038;BME280;5572;49.540;11.932;2022-12-07T06:59:07;96705.81;;;1.67;100.00
11038;BME280;5572;49.540;11.932;2022-12-07T07:01:34;96706.84;;;1.66;100.00
11038;BME280;5572;49.540;11.932;2022-12-07T07:04:01;96682.88;;;1.66;100.00
11038;BME280;5572;49.540;11.932;2022-12-07T07:06:28;96689.28;;;1.65;100.00
11038;BME280;5572;49.540;11.932;2022-12-07T07:08:56;96674.34;;;1.64;100.00
11038;BME280;5572;49.540;11.932;2022-12-07T07:11:22;96652.88;;;1.59;100.00
11038;BME280;5572;49.540;11.932;2022-12-07T07:13:49;96650.91;;;1.66;100.00
11038;BME280;5572;49.540;11.932;2022-12-07T07:16:15;96636.47;;;1.62;100.00
11038;BME280;5572;49.540;11.932;2022-12-07T07:18:42;96640.25;;;1.66;100.00
11038;BME280;5572;49.540;11.932;2022-12-07T07:21:09;96632.84;;;1.67;100.00
11038;BME280;5572;49.540;11.932;2022-12-07T07:23:35;96624.28;;;1.66;100.00
11038;BME280;5572;49.540;11.932;2022-12-07T07:26:04;96628.91;;;1.70;100.00
11038;BME280;5572;49.540;11.932;2022-12-07T07:28:30;96625.69;;;1.68;100.00
11038;BME280;5572;49.540;11.932;2022-12-07T07:30:57;96611.69;;;1.72;100.00
11038;BME280;5572;49.540;11.932;2022-12-07T07:33:23;96603.34;;;1.69;100.00
11038;BME280;5572;49.540;11.932;2022-12-07T07:35:50;96638.91;;;1.74;100.00
11038;BME280;5572;49.540;11.932;2022-12-07T07:38:17;96619.31;;;1.69;100.00
11038;BME280;5572;49.540;11.932;2022-12-07T07:40:43;96627.66;;;1.72;100.00
11038;BME280;5572;49.540;11.932;2022-12-07T07:43:11;96637.13;;;1.80;100.00
11038;BME280;5572;49.540;11.932;2022-12-07T07:45:38;96620.25;;;1.74;100.00
11038;BME280;5572;49.540;11.932;2022-12-07T07:48:04;96613.63;;;1.77;100.00
11038;BME280;5572;49.540;11.932;2022-12-07T07:50:31;96613.41;;;1.78;100.00
11038;BME280;5572;49.540;11.932;2022-12-07T07:52:59;96599.63;;;1.81;100.00
11038;BME280;5572;49.540;11.932;2022-12-07T07:55:26;96594.03;;;1.83;100.00
11038;BME280;5572;49.540;11.932;2022-12-07T07:57:58;96590.09;;;1.85;100.00
11038;BME280;5572;49.540;11.932;2022-12-07T08:00:27;96572.03;;;1.87;100.00
11038;BME280;5572;49.540;11.932;2022-12-07T08:02:55;96557.91;;;1.87;100.00
11038;BME280;5572;49.540;11.932;2022-12-07T08:05:22;96548.38;;;1.91;100.00
11038;BME280;5572;49.540;11.932;2022-12-07T08:07:49;96534.59;;;1.94;100.00
11038;BME280;5572;49.540;11.932;2022-12-07T08:10:16;96530.41;;;1.98;100.00
11038;BME280;5572;49.540;11.932;2022-12-07T08:12:43;96523.53;;;2.02;100.00
11038;BME280;5572;49.540;11.932;2022-12-07T08:15:30;96493.75;;;2.05;100.00
11038;BME280;5572;49.540;11.932;2022-12-07T08:17:57;96469.91;;;1.98;100.00
11038;BME280;5572;49.540;11.932;2022-12-07T08:20:24;96465.16;;;2.00;100.00
11038;BME280;5572;49.540;11.932;2022-12-07T08:22:51;96461.31;;;2.08;100.00
11038;BME280;5572;49.540;11.932;2022-12-07T08:25:18;96435.94;;;2.05;100.00
11038;BME280;5572;49.540;11.932;2022-12-07T08:27:44;96421.00;;;2.04;100.00
11038;BME280;5572;49.540;11.932;2022-12-07T08:30:11;96436.44;;;2.02;100.00
11038;BME280;5572;49.540;11.932;2022-12-07T08:32:40;96429.34;;;2.08;100.00
11038;BME280;5572;49.540;11.932;2022-12-07T08:35:07;96431.41;;;2.06;100.00
11038;BME280;5572;49.540;11.932;2022-12-07T08:37:34;96405.03;;;2.04;100.00
11038;BME280;5572;49.540;11.932;2022-12-07T08:40:01;96397.66;;;2.11;100.00
11038;BME280;5572;49.540;11.932;2022-12-07T08:42:28;96381.91;;;2.10;100.00
11038;BME280;5572;49.540;11.932;2022-12-07T08:45:03;96364.72;;;2.17;100.00
11038;BME280;5572;49.540;11.932;2022-12-07T08:47:30;96343.88;;;2.14;100.00
11038;BME280;5572;49.540;11.932;2022-12-07T08:49:59;96326.34;;;2.18;100.00
11038;BME280;5572;49.540;11.932;2022-12-07T08:52:29;96306.00;;;2.12;100.00
11038;BME280;5572;49.540;11.932;2022-12-07T08:54:56;96275.44;;;2.20;100.00
11038;BME280;5572;49.540;11.932;2022-12-07T08:57:24;96259.94;;;2.17;100.00
11038;BME280;5572;49.540;11.932;2022-12-07T08:59:51;96240.47;;;2.16;100.00
11038;BME280;5572;49.540;11.932;2022-12-07T09:02:18;96225.13;;;2.23;100.00
11038;BME280;5572;49.540;11.932;2022-12-07T09:04:47;96210.31;;;2.32;100.00
11038;BME280;5572;49.540;11.932;2022-12-07T09:07:16;96199.97;;;2.36;100.00
11038;BME280;5572;49.540;11.932;2022-12-07T09:09:43;96174.28;;;2.30;100.00
11038;BME280;5572;49.540;11.932;2022-12-07T09:12:09;96167.53;;;2.44;100.00
11038;BME280;5572;49.540;11.932;2022-12-07T09:14:36;96155.56;;;2.46;100.00
11038;BME280;5572;49.540;11.932;2022-12-07T09:17:07;96129.63;;;2.42;100.00
11038;BME280;5572;49.540;11.932;2022-12-07T09:19:34;96121.94;;;2.45;100.00
11038;BME280;5572;49.540;11.932;2022-12-07T09:22:01;96091.25;;;2.43;100.00
11038;BME280;5572;49.540;11.932;2022-12-07T09:24:29;96107.16;;;2.59;100.00
11038;BME280;5572;49.540;11.932;2022-12-07T09:26:56;96081.53;;;2.58;100.00
11038;BME280;5572;49.540;11.932;2022-12-07T09:29:25;96061.72;;;2.49;100.00
11038;BME280;5572;49.540;11.932;2022-12-07T09:31:57;96037.41;;;2.46;100.00
11038;BME280;5572;49.540;11.932;2022-12-07T09:34:33;96026.56;;;2.52;100.00
11038;BME280;5572;49.540;11.932;2022-12-07T09:37:00;96020.69;;;2.55;100.00
11038;BME280;5572;49.540;11.932;2022-12-07T09:39:30;96020.56;;;2.66;100.00
11038;BME280;5572;49.540;11.932;2022-12-07T09:41:58;95991.41;;;2.60;100.00
11038;BME280;5572;49.540;11.932;2022-12-07T09:44:29;95976.00;;;2.67;100.00
11038;BME280;5572;49.540;11.932;2022-12-07T09:46:57;95965.94;;;2.74;100.00
11038;BME280;5572;49.540;11.932;2022-12-07T09:49:28;95956.56;;;2.71;100.00
11038;BME280;5572;49.540;11.932;2022-12-07T09:52:04;95952.34;;;2.80;100.00
11038;BME280;5572;49.540;11.932;2022-12-07T09:54:48;95936.13;;;2.82;100.00
11038;BME280;5572;49.540;11.932;2022-12-07T09:57:16;95911.25;;;2.76;100.00
11038;BME280;5572;49.540;11.932;2022-12-07T09:59:43;95896.03;;;2.77;100.00
11038;BME280;5572;49.540;11.932;2022-12-07T10:02:24;95876.13;;;2.89;100.00
11038;BME280;5572;49.540;11.932;2022-12-07T10:04:52;95843.34;;;2.94;100.00
11038;BME280;5572;49.540;11.932;2022-12-07T10:07:19;95827.78;;;2.81;100.00
11038;BME280;5572;49.540;11.932;2022-12-07T10:09:47;95823.53;;;2.90;100.00
11038;BME280;5572;49.540;11.932;2022-12-07T10:12:15;95822.50;;;2.96;100.00
11038;BME280;5572;49.540;11.932;2022-12-07T10:14:54;95807.81;;;2.93;100.00
11038;BME280;5572;49.540;11.932;2022-12-07T10:17:30;95786.47;;;2.88;100.00
11038;BME280;5572;49.540;11.932;2022-12-07T10:20:13;95771.78;;;2.96;100.00
11038;BME280;5572;49.540;11.932;2022-12-07T10:22:54;95761.66;;;2.93;100.00
11038;BME280;5572;49.540;11.932;2022-12-07T10:25:24;95740.28;;;2.88;100.00
11038;BME280;5572;49.540;11.932;2022-12-07T10:27:58;95730.66;;;2.87;100.00
11038;BME280;5572;49.540;11.932;2022-12-07T10:30:26;95726.38;;;2.86;100.00
11038;BME280;5572;49.540;11.932;2022-12-07T10:32:53;95710.38;;;2.86;100.00
11038;BME280;5572;49.540;11.932;2022-12-07T10:35:24;95696.75;;;2.82;100.00
11038;BME280;5572;49.540;11.932;2022-12-07T10:37:53;95698.69;;;2.92;100.00
11038;BME280;5572;49.540;11.932;2022-12-07T10:40:29;95680.75;;;2.82;100.00
11038;BME280;5572;49.540;11.932;2022-12-07T10:43:04;95691.72;;;2.91;100.00
11038;BME280;5572;49.540;11.932;2022-12-07T10:45:32;95685.09;;;2.98;100.00
11038;BME280;5572;49.540;11.932;2022-12-07T10:48:05;95686.16;;;2.97;100.00
11038;BME280;5572;49.540;11.932;2022-12-07T10:51:02;95656.53;;;2.94;100.00
11038;BME280;5572;49.540;11.932;2022-12-07T10:53:50;95649.00;;;2.86;100.00
11038;BME280;5572;49.540;11.932;2022-12-07T10:56:42;95665.06;;;3.01;100.00
11038;BME280;5572;49.540;11.932;2022-12-07T10:59:28;95652.28;;;3.03;100.00
11038;BME280;5572;49.540;11.932;2022-12-07T11:02:06;95659.47;;;3.02;100.00
11038;BME280;5572;49.540;11.932;2022-12-07T11:04:43;95635.97;;;2.94;100.00
11038;BME280;5572;49.540;11.932;2022-12-07T11:07:21;95641.56;;;2.98;100.00
11038;BME280;5572;49.540;11.932;2022-12-07T11:09:57;95629.56;;;2.95;100.00
11038;BME280;5572;49.540;11.932;2022-12-07T11:12:40;95625.53;;;2.88;100.00
11038;BME280;5572;49.540;11.932;2022-12-07T11:15:14;95627.97;;;2.94;100.00
11038;BME280;5572;49.540;11.932;2022-12-07T11:17:49;95626.38;;;2.98;100.00
11038;BME280;5572;49.540;11.932;2022-12-07T11:20:32;95622.38;;;3.01;100.00
11038;BME280;5572;49.540;11.932;2022-12-07T11:23:07;95613.03;;;3.03;100.00
11038;BME280;5572;49.540;11.932;2022-12-07T11:25:41;95606.34;;;2.96;100.00
11038;BME280;5572;49.540;11.932;2022-12-07T11:28:23;95588.47;;;2.86;100.00
11038;BME280;5572;49.540;11.932;2022-12-07T11:30:57;95599.69;;;3.03;100.00
11038;BME280;5572;49.540;11.932;2022-12-07T11:33:35;95595.16;;;3.04;100.00
11038;BME280;5572;49.540;11.932;2022-12-07T11:36:17;95612.25;;;3.13;100.00
11038;BME280;5572;49.540;11.932;2022-12-07T11:38:54;95586.59;;;3.07;100.00
11038;BME280;5572;49.540;11.932;2022-12-07T11:41:24;95579.94;;;3.04;100.00
11038;BME280;5572;49.540;11.932;2022-12-07T11:43:59;95572.97;;;2.93;100.00
11038;BME280;5572;49.540;11.932;2022-12-07T11:46:40;95569.25;;;2.89;100.00
11038;BME280;5572;49.540;11.932;2022-12-07T11:49:13;95583.94;;;2.92;100.00
11038;BME280;5572;49.540;11.932;2022-12-07T11:51:44;95576.72;;;2.97;100.00
11038;BME280;5572;49.540;11.932;2022-12-07T11:54:15;95573.78;;;2.99;100.00
11038;BME280;5572;49.540;11.932;2022-12-07T11:56:43;95564.97;;;2.93;100.00
11038;BME280;5572;49.540;11.932;2022-12-07T11:59:17;95569.53;;;2.93;100.00
11038;BME280;5572;49.540;11.932;2022-12-07T12:01:53;95566.59;;;2.89;100.00
11038;BME280;5572;49.540;11.932;2022-12-07T12:04:30;95552.44;;;2.84;100.00
11038;BME280;5572;49.540;11.932;2022-12-07T12:06:57;95559.91;;;2.82;100.00
11038;BME280;5572;49.540;11.932;2022-12-07T12:09:27;95569.78;;;2.86;100.00
11038;BME280;5572;49.540;11.932;2022-12-07T12:12:12;95579.66;;;2.91;100.00
11038;BME280;5572;49.540;11.932;2022-12-07T12:14:50;95583.13;;;2.86;100.00
11038;BME280;5572;49.540;11.932;2022-12-07T12:20:22;95587.38;;;2.82;100.00
11038;BME280;5572;49.540;11.932;2022-12-07T12:22:52;95599.38;;;2.85;100.00
11038;BME280;5572;49.540;11.932;2022-12-07T12:25:23;95622.34;;;2.81;100.00
11038;BME280;5572;49.540;11.932;2022-12-07T12:27:53;95627.94;;;2.79;100.00
11038;BME280;5572;49.540;11.932;2022-12-07T12:33:26;95562.31;;;2.78;100.00
11038;BME280;5572;49.540;11.932;2022-12-07T12:36:19;95533.47;;;2.75;100.00
11038;BME280;5572;49.540;11.932;2022-12-07T12:38:49;95547.63;;;2.71;100.00
11038;BME280;5572;49.540;11.932;2022-12-07T12:47:52;95611.38;;;2.82;100.00
11038;BME280;5572;49.540;11.932;2022-12-07T12:50:30;95645.00;;;2.78;100.00
11038;BME280;5572;49.540;11.932;2022-12-07T12:53:12;95669.03;;;2.83;100.00
11038;BME280;5572;49.540;11.932;2022-12-07T12:58:34;95694.59;;;2.74;100.00
11038;BME280;5572;49.540;11.932;2022-12-07T13:01:35;95711.94;;;2.72;100.00
11038;BME280;5572;49.540;11.932;2022-12-07T13:04:27;95743.19;;;2.76;100.00
11038;BME280;5572;49.540;11.932;2022-12-07T13:06:57;95765.31;;;2.77;100.00
11038;BME280;5572;49.540;11.932;2022-12-07T13:09:26;95782.38;;;2.71;100.00
11038;BME280;5572;49.540;11.932;2022-12-07T13:12:02;95809.31;;;2.74;100.00
11038;BME280;5572;49.540;11.932;2022-12-07T13:14:54;95822.38;;;2.71;100.00
11038;BME280;5572;49.540;11.932;2022-12-07T13:18:02;95842.38;;;2.68;100.00
11038;BME280;5572;49.540;11.932;2022-12-07T13:20:55;95863.72;;;2.68;100.00
11038;BME280;5572;49.540;11.932;2022-12-07T13:23:29;95895.47;;;2.70;100.00
11038;BME280;5572;49.540;11.932;2022-12-07T13:26:04;95927.25;;;2.76;100.00
11038;BME280;5572;49.540;11.932;2022-12-07T13:28:37;95945.94;;;2.76;100.00
11038;BME280;5572;49.540;11.932;2022-12-07T13:34:01;95975.31;;;2.81;100.00
11038;BME280;5572;49.540;11.932;2022-12-07T13:36:30;96001.16;;;2.76;100.00
11038;BME280;5572;49.540;11.932;2022-12-07T13:39:20;96019.63;;;2.82;100.00